createdAt,value
2022-10-15T00:01:48.678Z,17.08
2022-10-15T00:04:17.595Z,17.11
2022-10-15T00:06:45.883Z,17.05
2022-10-15T00:09:15.504Z,17.09
2022-10-15T00:11:43.746Z,17.10
2022-10-15T00:14:12.016Z,17.07
2022-10-15T00:16:40.433Z,17.10
2022-10-15T00:19:08.606Z,17.09
2022-10-15T00:21:37.368Z,17.05
2022-10-15T00:24:06.495Z,17.09
2022-10-15T00:26:36.181Z,17.07
2022-10-15T00:29:05.819Z,17.07
2022-10-15T00:31:34.904Z,17.08
2022-10-15T00:34:03.831Z,17.07
2022-10-15T00:36:34.688Z,17.09
2022-10-15T00:39:05.546Z,16.85
2022-10-15T00:41:37.942Z,17.07
2022-10-15T00:44:48.794Z,17.04
2022-10-15T00:47:20.415Z,17.08
2022-10-15T00:49:55.135Z,17.08
2022-10-15T00:52:28.492Z,17.11
2022-10-15T00:55:02.081Z,17.02
2022-10-15T00:57:32.458Z,17.01
2022-10-15T01:00:09.183Z,17.01
2022-10-15T01:02:37.591Z,17.00
2022-10-15T01:05:07.264Z,17.01
2022-10-15T01:07:35.731Z,16.96
2022-10-15T01:10:05.530Z,17.04
2022-10-15T01:12:53.963Z,17.04
2022-10-15T01:15:30.185Z,16.99
2022-10-15T01:18:04.854Z,16.99
2022-10-15T01:21:10.396Z,17.06
2022-10-15T01:24:53.497Z,17.02
2022-10-15T01:27:37.514Z,16.99
2022-10-15T01:30:32.111Z,16.85
2022-10-15T01:33:28.739Z,16.99
2022-10-15T01:36:08.422Z,17.03
2022-10-15T01:38:49.919Z,17.05
2022-10-15T01:41:27.998Z,17.07
2022-10-15T01:44:02.564Z,16.89
2022-10-15T01:47:00.166Z,16.77
2022-10-15T01:49:32.964Z,16.97
2022-10-15T01:52:10.571Z,16.96
2022-10-15T01:54:39.543Z,16.96
2022-10-15T01:57:09.538Z,16.94
2022-10-15T01:59:38.094Z,16.85
2022-10-15T02:02:07.674Z,16.82
2022-10-15T02:04:36.241Z,16.62
2022-10-15T02:07:08.550Z,16.89
2022-10-15T02:09:51.674Z,16.88
2022-10-15T02:12:33.313Z,16.76
2022-10-15T02:15:12.131Z,16.73
2022-10-15T02:17:47.595Z,16.76
2022-10-15T02:20:22.131Z,16.73
2022-10-15T02:22:57.458Z,16.64
2022-10-15T02:25:27.076Z,16.52
2022-10-15T02:27:58.123Z,16.66
2022-10-15T02:30:30.291Z,16.68
2022-10-15T02:33:00.860Z,16.70
2022-10-15T02:35:29.696Z,16.70
2022-10-15T02:38:03.648Z,16.62
2022-10-15T02:40:36.974Z,16.58
2022-10-15T02:43:07.830Z,16.56
2022-10-15T02:45:36.639Z,16.55
2022-10-15T02:48:07.995Z,16.55
2022-10-15T02:50:36.739Z,16.59
2022-10-15T02:53:05.604Z,16.56
2022-10-15T02:55:35.189Z,16.55
2022-10-15T02:58:03.549Z,16.51
2022-10-15T03:00:32.227Z,16.48
2022-10-15T03:03:00.816Z,16.53
2022-10-15T03:05:31.236Z,16.53
2022-10-15T03:08:01.296Z,16.48
2022-10-15T03:10:30.333Z,16.45
2022-10-15T03:13:04.637Z,16.43
2022-10-15T03:15:37.677Z,16.32
2022-10-15T03:18:06.938Z,16.30
2022-10-15T03:20:37.825Z,16.28
2022-10-15T03:23:06.238Z,16.31
2022-10-15T03:25:34.646Z,16.30
2022-10-15T03:28:06.145Z,16.24
2022-10-15T03:30:41.416Z,16.30
2022-10-15T03:33:09.920Z,16.31
2022-10-15T03:35:40.871Z,16.31
2022-10-15T03:38:10.582Z,16.27
2022-10-15T03:40:39.279Z,16.28
2022-10-15T03:43:27.976Z,16.23
2022-10-15T03:45:57.444Z,16.27
2022-10-15T03:48:26.359Z,16.25
2022-10-15T03:50:56.198Z,16.27
2022-10-15T03:53:24.716Z,16.27
2022-10-15T03:55:53.113Z,16.27
2022-10-15T03:58:21.615Z,16.22
2022-10-15T04:00:56.171Z,16.24
2022-10-15T04:03:24.566Z,16.25
2022-10-15T04:05:55.995Z,16.21
2022-10-15T04:08:29.220Z,16.15
2022-10-15T04:10:59.142Z,16.24
2022-10-15T04:13:28.373Z,16.27
2022-10-15T04:15:57.432Z,16.28
2022-10-15T04:18:25.983Z,16.36
2022-10-15T04:21:00.203Z,16.40
2022-10-15T04:23:29.125Z,16.14
2022-10-15T04:26:16.098Z,16.28
2022-10-15T04:28:44.641Z,16.32
2022-10-15T04:31:13.101Z,16.24
2022-10-15T04:33:41.716Z,16.19
2022-10-15T04:36:14.988Z,16.41
2022-10-15T04:39:04.697Z,16.31
2022-10-15T04:41:42.401Z,16.27
2022-10-15T04:44:22.362Z,16.30
2022-10-15T04:46:56.110Z,16.22
2022-10-15T04:49:34.234Z,16.34
2022-10-15T04:52:10.073Z,16.33
2022-10-15T04:54:47.001Z,16.26
2022-10-15T04:57:15.143Z,16.09
2022-10-15T04:59:44.449Z,16.13
2022-10-15T05:02:32.945Z,16.11
2022-10-15T05:05:39.855Z,15.55
2022-10-15T05:08:10.094Z,16.03
2022-10-15T05:11:03.017Z,16.11
2022-10-15T05:13:33.084Z,16.14
2022-10-15T05:16:10.224Z,16.11
2022-10-15T05:18:38.953Z,15.90
2022-10-15T05:21:08.004Z,16.24
2022-10-15T05:23:39.036Z,16.25
2022-10-15T05:26:32.176Z,16.28
2022-10-15T05:29:01.703Z,16.30
2022-10-15T05:31:34.589Z,16.33
2022-10-15T05:34:14.299Z,16.25
2022-10-15T05:36:48.948Z,16.08
2022-10-15T05:39:19.044Z,16.09
2022-10-15T05:41:47.587Z,15.56
2022-10-15T05:44:16.148Z,16.06
2022-10-15T05:46:44.485Z,16.02
2022-10-15T05:49:19.191Z,15.95
2022-10-15T05:52:02.464Z,15.90
2022-10-15T05:54:49.556Z,15.87
2022-10-15T05:57:17.948Z,15.91
2022-10-15T05:59:46.232Z,16.00
2022-10-15T06:02:16.325Z,15.49
2022-10-15T06:04:44.870Z,15.86
2022-10-15T06:07:13.175Z,15.68
2022-10-15T06:09:41.572Z,15.67
2022-10-15T06:12:11.238Z,15.66
2022-10-15T06:14:39.468Z,15.73
2022-10-15T06:17:08.379Z,15.74
2022-10-15T06:19:36.664Z,15.71
2022-10-15T06:22:05.150Z,15.69
2022-10-15T06:24:33.459Z,15.60
2022-10-15T06:27:02.927Z,15.72
2022-10-15T06:29:32.652Z,15.73
2022-10-15T06:32:02.962Z,15.10
2022-10-15T06:34:31.395Z,15.80
2022-10-15T06:36:59.679Z,15.78
2022-10-15T06:39:28.009Z,15.76
2022-10-15T06:41:56.294Z,15.74
2022-10-15T06:44:32.892Z,15.87
2022-10-15T06:47:01.212Z,15.76
2022-10-15T06:49:29.505Z,15.72
2022-10-15T06:52:02.584Z,15.84
2022-10-15T06:54:32.290Z,15.80
2022-10-15T06:57:00.596Z,15.76
2022-10-15T06:59:28.853Z,15.71
2022-10-15T07:01:59.030Z,15.51
2022-10-15T07:04:27.374Z,15.46
2022-10-15T07:06:55.654Z,15.53
2022-10-15T07:09:26.132Z,15.57
2022-10-15T07:11:54.474Z,15.50
2022-10-15T07:14:22.761Z,15.45
2022-10-15T07:16:51.175Z,15.44
2022-10-15T07:19:21.294Z,15.45
2022-10-15T07:21:50.466Z,15.39
2022-10-15T07:24:19.667Z,15.27
2022-10-15T07:26:49.088Z,15.14
2022-10-15T07:29:17.840Z,15.33
2022-10-15T07:31:47.741Z,15.42
2022-10-15T07:34:18.165Z,15.51
2022-10-15T07:36:47.894Z,15.66
2022-10-15T07:39:18.928Z,15.71
2022-10-15T07:41:47.224Z,15.11
2022-10-15T07:44:15.453Z,15.60
2022-10-15T07:46:43.809Z,15.69
2022-10-15T07:49:12.142Z,15.23
2022-10-15T07:51:40.463Z,15.53
2022-10-15T07:54:10.129Z,15.61
2022-10-15T07:56:38.437Z,15.56
2022-10-15T07:59:06.679Z,15.54
2022-10-15T08:01:35.195Z,14.85
2022-10-15T08:04:04.171Z,15.29
2022-10-15T08:06:33.448Z,15.38
2022-10-15T08:09:01.760Z,15.33
2022-10-15T08:11:32.069Z,15.42
2022-10-15T08:14:00.490Z,15.50
2022-10-15T08:16:28.855Z,15.80
2022-10-15T08:19:00.605Z,15.84
2022-10-15T08:21:28.970Z,15.82
2022-10-15T08:23:57.193Z,16.12
2022-10-15T08:26:36.018Z,16.19
2022-10-15T08:29:04.632Z,15.93
2022-10-15T08:31:33.301Z,16.18
2022-10-15T08:34:01.942Z,16.36
2022-10-15T08:36:30.486Z,16.27
2022-10-15T08:38:59.280Z,15.78
2022-10-15T08:41:37.137Z,15.73
2022-10-15T08:44:06.410Z,16.15
2022-10-15T08:46:39.964Z,16.25
2022-10-15T08:49:15.744Z,16.31
2022-10-15T08:51:53.506Z,16.47
2022-10-15T08:54:22.113Z,16.46
2022-10-15T08:57:03.586Z,16.27
2022-10-15T08:59:38.762Z,16.15
2022-10-15T09:02:18.383Z,16.25
2022-10-15T09:04:55.378Z,16.33
2022-10-15T09:07:31.246Z,16.35
2022-10-15T09:10:12.272Z,16.31
2022-10-15T09:12:52.498Z,16.35
2022-10-15T09:15:25.491Z,16.18
2022-10-15T09:17:57.008Z,16.05
2022-10-15T09:20:34.070Z,15.96
2022-10-15T09:23:02.898Z,15.84
2022-10-15T09:25:37.147Z,15.92
2022-10-15T09:28:17.002Z,15.86
2022-10-15T09:30:50.953Z,15.79
2022-10-15T09:33:34.924Z,15.86
2022-10-15T09:36:24.867Z,15.95
2022-10-15T09:39:06.326Z,15.98
2022-10-15T09:41:51.640Z,16.17
2022-10-15T09:44:26.548Z,16.04
2022-10-15T09:46:54.867Z,16.25
2022-10-15T09:49:29.358Z,16.27
2022-10-15T09:52:10.432Z,15.72
2022-10-15T09:54:47.405Z,16.18
2022-10-15T09:57:18.736Z,15.83
2022-10-15T10:00:14.784Z,16.10
2022-10-15T10:02:44.210Z,16.13
2022-10-15T10:05:30.541Z,16.08
2022-10-15T10:08:11.071Z,15.99
2022-10-15T10:10:41.854Z,15.98
2022-10-15T10:13:25.891Z,15.97
2022-10-15T10:15:59.481Z,15.20
2022-10-15T10:18:28.251Z,15.97
2022-10-15T10:20:59.909Z,15.97
2022-10-15T10:23:34.823Z,15.99
2022-10-15T10:26:04.642Z,15.88
2022-10-15T10:28:39.383Z,15.82
2022-10-15T10:31:13.653Z,15.97
2022-10-15T10:33:47.746Z,16.10
2022-10-15T10:36:28.382Z,16.11
2022-10-15T10:39:02.796Z,16.13
2022-10-15T10:41:50.503Z,16.20
2022-10-15T10:44:30.921Z,16.07
2022-10-15T10:47:16.462Z,15.59
2022-10-15T10:49:47.401Z,16.34
2022-10-15T10:52:28.928Z,16.38
2022-10-15T10:55:03.024Z,16.45
2022-10-15T10:57:42.648Z,16.63
2022-10-15T11:00:17.607Z,16.69
2022-10-15T11:02:52.728Z,16.80
2022-10-15T11:05:28.895Z,16.95
2022-10-15T11:08:09.964Z,16.87
2022-10-15T11:10:47.106Z,16.90
2022-10-15T11:13:39.084Z,17.10
2022-10-15T11:16:20.725Z,17.05
2022-10-15T11:19:19.715Z,17.17
2022-10-15T11:22:15.638Z,17.23
2022-10-15T11:25:05.895Z,17.25
2022-10-15T11:27:51.824Z,17.32
2022-10-15T11:30:39.640Z,17.35
2022-10-15T11:33:28.874Z,16.85
2022-10-15T11:36:21.420Z,17.51
2022-10-15T11:39:01.481Z,17.47
2022-10-15T11:41:44.937Z,17.49
2022-10-15T11:44:33.922Z,17.40
2022-10-15T11:47:25.464Z,17.54
2022-10-15T11:50:09.436Z,17.52
2022-10-15T11:52:59.477Z,17.52
2022-10-15T11:55:36.508Z,17.55
2022-10-15T11:58:13.198Z,17.55
2022-10-15T12:00:46.875Z,17.68
2022-10-15T12:03:20.959Z,17.91
2022-10-15T12:05:54.908Z,17.93
2022-10-15T12:08:29.499Z,18.03
2022-10-15T12:11:22.079Z,18.00
2022-10-15T12:13:58.023Z,17.95
2022-10-15T12:16:35.024Z,17.91
2022-10-15T12:19:15.376Z,17.80
2022-10-15T12:22:06.898Z,17.83
2022-10-15T12:24:56.682Z,17.93
2022-10-15T12:27:35.538Z,17.91
2022-10-15T12:30:23.742Z,18.10
2022-10-15T12:32:53.987Z,18.16
2022-10-15T12:35:45.566Z,18.22
2022-10-15T12:38:28.194Z,18.26
2022-10-15T12:41:11.107Z,18.33
2022-10-15T12:43:43.384Z,18.49
2022-10-15T12:46:12.991Z,18.57
2022-10-15T12:48:43.772Z,18.58
2022-10-15T12:51:39.398Z,18.81
2022-10-15T12:54:41.577Z,18.80
2022-10-15T12:57:55.767Z,19.16
2022-10-15T13:00:42.615Z,19.16
2022-10-15T13:03:43.796Z,19.20
2022-10-15T13:06:34.321Z,19.14
2022-10-15T13:09:25.247Z,19.00
2022-10-15T13:11:55.888Z,19.18
2022-10-15T13:14:32.974Z,19.27
2022-10-15T13:17:05.338Z,19.12
2022-10-15T13:19:39.735Z,19.39
2022-10-15T13:22:22.368Z,19.40
2022-10-15T13:24:50.797Z,19.43
2022-10-15T13:27:26.992Z,19.43
2022-10-15T13:29:59.387Z,19.29
2022-10-15T13:32:30.833Z,19.37
2022-10-15T13:35:00.039Z,19.50
2022-10-15T13:37:36.244Z,19.40
2022-10-15T13:40:08.040Z,19.47
2022-10-15T13:42:36.914Z,19.26
2022-10-15T13:45:18.904Z,18.83
2022-10-15T13:47:50.491Z,19.12
2022-10-15T13:50:23.021Z,19.38
2022-10-15T13:52:55.314Z,18.85
2022-10-15T13:55:28.530Z,19.09
2022-10-15T13:58:01.662Z,19.22
2022-10-15T14:00:35.062Z,19.36
2022-10-15T14:03:25.745Z,19.16
2022-10-15T14:05:56.742Z,19.13
2022-10-15T14:08:29.766Z,19.32
2022-10-15T14:11:00.418Z,19.14
2022-10-15T14:13:29.242Z,19.30
2022-10-15T14:16:15.294Z,18.82
2022-10-15T14:18:49.159Z,19.45
2022-10-15T14:21:21.100Z,19.23
2022-10-15T14:23:50.939Z,19.33
2022-10-15T14:26:25.835Z,19.22
2022-10-15T14:28:55.892Z,19.11
2022-10-15T14:31:42.491Z,19.09
2022-10-15T14:34:30.325Z,19.14
2022-10-15T14:36:58.952Z,19.18
2022-10-15T14:39:31.719Z,19.31
2022-10-15T14:42:02.494Z,19.25
2022-10-15T14:44:44.557Z,19.33
2022-10-15T14:47:22.282Z,19.42
2022-10-15T14:49:54.181Z,19.25
2022-10-15T14:52:23.634Z,19.39
2022-10-15T14:55:04.287Z,19.42
2022-10-15T14:57:37.512Z,19.41
2022-10-15T15:00:22.072Z,19.47
2022-10-15T15:02:52.061Z,19.43
2022-10-15T15:05:24.203Z,19.48
2022-10-15T15:07:52.899Z,19.37
2022-10-15T15:10:21.770Z,19.37
2022-10-15T15:12:54.904Z,19.35
2022-10-15T15:15:26.498Z,19.37
2022-10-15T15:17:56.227Z,19.37
2022-10-15T15:20:25.982Z,19.28
2022-10-15T15:22:56.418Z,19.18
2022-10-15T15:25:33.629Z,19.29
2022-10-15T15:28:02.305Z,19.28
2022-10-15T15:30:34.330Z,19.23
2022-10-15T15:33:04.153Z,19.21
2022-10-15T15:35:41.059Z,19.24
2022-10-15T15:38:09.524Z,19.21
2022-10-15T15:40:37.850Z,19.14
2022-10-15T15:43:06.279Z,19.14
2022-10-15T15:45:34.825Z,19.15
2022-10-15T15:48:05.223Z,19.13
2022-10-15T15:50:33.685Z,19.14
2022-10-15T15:53:01.974Z,19.03
2022-10-15T15:55:30.585Z,19.00
2022-10-15T15:57:58.853Z,18.97
2022-10-15T16:00:27.260Z,19.00
2022-10-15T16:02:57.907Z,18.98
2022-10-15T16:05:28.065Z,18.79
2022-10-15T16:07:56.394Z,18.84
2022-10-15T16:10:25.250Z,18.91
2022-10-15T16:12:53.726Z,18.89
2022-10-15T16:15:21.980Z,18.69
2022-10-15T16:17:50.354Z,18.54
2022-10-15T16:20:18.808Z,18.66
2022-10-15T16:22:51.103Z,18.68
2022-10-15T16:25:19.644Z,18.58
2022-10-15T16:27:49.310Z,18.48
2022-10-15T16:30:17.996Z,18.46
2022-10-15T16:32:46.458Z,18.43
2022-10-15T16:35:14.882Z,18.27
2022-10-15T16:37:43.181Z,18.30
2022-10-15T16:40:14.943Z,18.30
2022-10-15T16:42:43.279Z,18.11
2022-10-15T16:45:12.452Z,18.27
2022-10-15T16:47:40.695Z,18.26
2022-10-15T16:50:10.443Z,18.25
2022-10-15T16:52:38.901Z,18.15
2022-10-15T16:55:08.158Z,18.11
2022-10-15T16:57:37.869Z,18.01
2022-10-15T17:00:07.455Z,17.95
2022-10-15T17:02:35.714Z,17.93
2022-10-15T17:05:04.107Z,17.89
2022-10-15T17:07:32.626Z,17.84
2022-10-15T17:10:00.995Z,17.86
2022-10-15T17:12:29.605Z,17.92
2022-10-15T17:14:59.237Z,17.82
2022-10-15T17:17:27.699Z,17.86
2022-10-15T17:19:55.992Z,17.86
2022-10-15T17:22:24.902Z,17.87
2022-10-15T17:24:53.538Z,17.90
2022-10-15T17:27:21.823Z,17.77
2022-10-15T17:29:50.134Z,17.72
2022-10-15T17:32:19.820Z,17.54
2022-10-15T17:34:48.327Z,17.44
2022-10-15T17:37:16.785Z,17.46
2022-10-15T17:39:45.280Z,17.42
2022-10-15T17:42:15.689Z,17.40
2022-10-15T17:44:44.006Z,17.38
2022-10-15T17:47:13.395Z,17.29
2022-10-15T17:49:43.069Z,17.41
2022-10-15T17:52:11.826Z,17.41
2022-10-15T17:54:40.331Z,17.46
2022-10-15T17:57:08.632Z,17.50
2022-10-15T17:59:36.985Z,17.52
2022-10-15T18:02:05.453Z,17.55
2022-10-15T18:04:40.502Z,17.52
2022-10-15T18:07:10.201Z,17.59
2022-10-15T18:09:38.595Z,17.60
2022-10-15T18:12:07.513Z,17.59
2022-10-15T18:14:36.886Z,17.60
2022-10-15T18:17:06.316Z,17.64
2022-10-15T18:19:34.681Z,17.60
2022-10-15T18:22:02.982Z,17.66
2022-10-15T18:24:33.125Z,17.62
2022-10-15T18:27:06.172Z,17.61
2022-10-15T18:29:35.995Z,17.58
2022-10-15T18:32:04.684Z,17.58
2022-10-15T18:34:34.229Z,17.60
2022-10-15T18:37:02.544Z,17.57
2022-10-15T18:39:32.231Z,17.56
2022-10-15T18:42:00.596Z,17.57
2022-10-15T18:44:29.342Z,17.44
2022-10-15T18:46:57.708Z,17.49
2022-10-15T18:49:26.230Z,17.55
2022-10-15T18:51:55.434Z,17.41
2022-10-15T18:54:24.097Z,17.58
2022-10-15T18:56:53.886Z,17.59
2022-10-15T18:59:22.426Z,17.44
2022-10-15T19:01:53.743Z,17.26
2022-10-15T19:04:24.492Z,17.46
2022-10-15T19:06:54.444Z,17.47
2022-10-15T19:09:26.473Z,17.47
2022-10-15T19:11:58.297Z,17.35
2022-10-15T19:14:29.162Z,17.31
2022-10-15T19:16:58.356Z,17.24
2022-10-15T19:19:27.549Z,17.24
2022-10-15T19:21:58.847Z,17.11
2022-10-15T19:24:27.149Z,17.17
2022-10-15T19:26:57.028Z,17.12
2022-10-15T19:29:25.470Z,17.13
2022-10-15T19:31:56.785Z,17.16
2022-10-15T19:34:25.594Z,17.18
2022-10-15T19:36:53.961Z,17.21
2022-10-15T19:39:24.913Z,17.21
2022-10-15T19:41:54.379Z,17.01
2022-10-15T19:44:27.614Z,17.20
2022-10-15T19:46:56.359Z,17.12
2022-10-15T19:49:25.296Z,17.05
2022-10-15T19:51:54.799Z,17.06
2022-10-15T19:56:56.765Z,16.76
2022-10-15T19:59:26.535Z,16.38
2022-10-15T20:01:54.923Z,16.88
2022-10-15T20:04:23.727Z,16.89
2022-10-15T20:06:52.879Z,16.84
2022-10-15T20:09:21.192Z,16.80
2022-10-15T20:11:49.592Z,16.88
2022-10-15T20:14:17.870Z,16.83
2022-10-15T20:16:47.580Z,16.88
2022-10-15T20:19:15.970Z,16.90
2022-10-15T20:21:44.415Z,16.88
2022-10-15T20:24:12.722Z,16.88
2022-10-15T20:26:40.999Z,16.82
2022-10-15T20:29:09.595Z,16.90
2022-10-15T20:31:37.900Z,16.88
2022-10-15T20:34:07.569Z,16.91
2022-10-15T20:36:41.099Z,16.89
2022-10-15T20:39:09.516Z,16.89
2022-10-15T20:41:38.003Z,16.92
2022-10-15T20:44:06.715Z,16.19
2022-10-15T20:46:39.769Z,16.25
2022-10-15T20:49:16.258Z,16.89
2022-10-15T20:51:46.342Z,16.87
2022-10-15T20:54:16.716Z,16.88
2022-10-15T20:56:45.062Z,16.90
2022-10-15T20:59:13.915Z,16.91
2022-10-15T21:01:42.507Z,16.92
2022-10-15T21:04:12.262Z,16.89
2022-10-15T21:06:40.872Z,16.94
2022-10-15T21:09:09.326Z,16.90
2022-10-15T21:11:42.700Z,16.49
2022-10-15T21:14:11.366Z,16.88
2022-10-15T21:16:39.920Z,16.89
2022-10-15T21:19:08.447Z,16.78
2022-10-15T21:21:38.129Z,16.73
2022-10-15T21:24:07.137Z,16.94
2022-10-15T21:26:35.377Z,16.32
2022-10-15T21:29:03.823Z,16.91
2022-10-15T21:31:32.268Z,16.89
2022-10-15T21:34:00.590Z,16.86
2022-10-15T21:36:30.053Z,16.88
2022-10-15T21:39:02.508Z,16.85
2022-10-15T21:41:33.602Z,16.78
2022-10-15T21:44:03.138Z,16.79
2022-10-15T21:46:32.266Z,16.82
2022-10-15T21:49:01.567Z,16.62
2022-10-15T21:51:32.218Z,16.76
2022-10-15T21:54:04.305Z,16.78
2022-10-15T21:56:32.824Z,16.72
2022-10-15T21:59:01.266Z,16.76
2022-10-15T22:01:32.177Z,16.70
2022-10-15T22:04:02.609Z,16.79
2022-10-15T22:06:31.994Z,16.81
2022-10-15T22:09:02.800Z,16.76
2022-10-15T22:11:34.968Z,16.78
2022-10-15T22:14:07.574Z,16.79
2022-10-15T22:16:38.611Z,16.79
2022-10-15T22:19:09.155Z,16.83
2022-10-15T22:21:39.876Z,16.80
2022-10-15T22:24:12.236Z,16.74
2022-10-15T22:26:43.356Z,16.71
2022-10-15T22:29:20.425Z,16.60
2022-10-15T22:31:48.922Z,16.64
2022-10-15T22:34:17.627Z,16.69
2022-10-15T22:36:46.319Z,16.67
2022-10-15T22:39:18.464Z,16.71
2022-10-15T22:41:48.813Z,16.59
2022-10-15T22:44:20.862Z,16.68
2022-10-15T22:46:50.111Z,16.70
2022-10-15T22:49:21.110Z,16.72
2022-10-15T22:51:50.360Z,16.79
2022-10-15T22:54:22.782Z,16.80
2022-10-15T22:56:51.910Z,16.88
2022-10-15T22:59:20.781Z,16.91
2022-10-15T23:01:49.134Z,16.88
2022-10-15T23:04:18.019Z,16.85
2022-10-15T23:06:46.370Z,16.86
2022-10-15T23:09:17.929Z,16.77
2022-10-15T23:11:48.192Z,16.83
2022-10-15T23:14:18.539Z,16.81
2022-10-15T23:16:49.028Z,16.87
2022-10-15T23:19:20.073Z,16.77
2022-10-15T23:21:50.542Z,16.79
2022-10-15T23:24:21.322Z,16.82
2022-10-15T23:26:51.028Z,16.74
2022-10-15T23:29:22.333Z,16.52
2022-10-15T23:31:52.723Z,16.76
2022-10-15T23:34:23.233Z,16.75
2022-10-15T23:36:52.628Z,16.72
2022-10-15T23:39:23.449Z,16.66
2022-10-15T23:41:53.531Z,16.74
2022-10-15T23:44:25.350Z,16.68
2022-10-15T23:46:54.019Z,16.65
2022-10-15T23:49:22.343Z,16.76
2022-10-15T23:51:50.615Z,16.66
2022-10-15T23:54:19.876Z,16.69
2022-10-15T23:56:49.009Z,16.63
2022-10-15T23:59:18.661Z,16.60
